Time;durP1;ratioP1;P1;durP2;ratioP2;P2;SDS_P1;SDS_P2;PMS_P1;PMS_P2;Temp;Humidity;BMP_temperature;BMP_pressure;BME280_temperature;BME280_humidity;BME280_pressure;Samples;Min_cycle;Max_cycle;Signal;HPM_P1;HPM_P2
2022/08/26 00:01:46;;;;;;;;;;;23.10;73.30;;;;;;6099986;23;1011;-68
2022/08/26 00:04:12;;;;;;;;;;;23.10;73.30;;;;;;6125657;23;1207;-68
2022/08/26 00:06:37;;;;;;;;;;;23.10;73.40;;;;;;6125378;23;789;-68
2022/08/26 00:09:03;;;;;;;;;;;23.00;73.30;;;;;;6126965;23;1943;-67
2022/08/26 00:11:28;;;;;;;;;;;23.00;73.30;;;;;;6127613;23;836;-67
2022/08/26 00:13:54;;;;;;;;;;;23.00;73.30;;;;;;6127634;23;1278;-66
2022/08/26 00:16:19;;;;;;;;;;;23.00;73.30;;;;;;6127453;23;916;-67
2022/08/26 00:18:45;;;;;;;;;;;23.00;73.30;;;;;;6127735;23;832;-67
2022/08/26 00:21:10;;;;;;;;;;;23.00;73.30;;;;;;6127349;23;1023;-68
2022/08/26 00:23:36;;;;;;;;;;;23.00;73.30;;;;;;6127553;23;1187;-67
2022/08/26 00:26:01;;;;;;;;;;;23.10;73.30;;;;;;6127318;23;777;-67
2022/08/26 00:28:27;;;;;;;;;;;23.00;73.20;;;;;;6127599;23;1940;-67
2022/08/26 00:30:52;;;;;;;;;;;23.00;73.30;;;;;;6127508;23;1011;-67
2022/08/26 00:33:18;;;;;;;;;;;23.10;73.30;;;;;;6127625;23;823;-69
2022/08/26 00:35:44;;;;;;;;;;;23.10;73.30;;;;;;6127116;23;1230;-67
2022/08/26 00:38:10;;;;;;;;;;;23.00;73.30;;;;;;6101734;23;1054;-67
2022/08/26 00:40:36;;;;;;;;;;;23.00;73.30;;;;;;6127516;23;734;-68
2022/08/26 00:43:02;;;;;;;;;;;23.00;73.30;;;;;;6101610;23;793;-68
2022/08/26 00:45:30;;;;;;;;;;;23.00;73.30;;;;;;6101387;23;1247;-68
2022/08/26 00:47:56;;;;;;;;;;;23.10;73.40;;;;;;6101171;23;1933;-67
2022/08/26 00:50:23;;;;;;;;;;;23.10;73.30;;;;;;6101784;23;852;-66
2022/08/26 00:52:49;;;;;;;;;;;23.10;73.40;;;;;;6101421;23;1042;-66
2022/08/26 00:55:16;;;;;;;;;;;23.10;73.30;;;;;;6101203;23;1275;-66
2022/08/26 00:57:42;;;;;;;;;;;23.00;73.30;;;;;;6127066;23;809;-66
2022/08/26 01:00:10;;;;;;;;;;;23.10;73.30;;;;;;6101640;23;805;-66
2022/08/26 01:02:35;;;;;;;;;;;23.00;73.30;;;;;;6101279;23;821;-66
2022/08/26 01:05:01;;;;;;;;;;;23.00;73.30;;;;;;6101383;23;1192;-66
2022/08/26 01:07:27;;;;;;;;;;;23.10;73.30;;;;;;6127098;23;824;-66
2022/08/26 01:09:53;;;;;;;;;;;23.00;73.30;;;;;;6101263;23;1897;-66
2022/08/26 01:12:18;;;;;;;;;;;23.00;73.30;;;;;;6101350;23;904;-66
2022/08/26 01:14:44;;;;;;;;;;;23.00;73.30;;;;;;6101216;23;1219;-66
2022/08/26 01:17:10;;;;;;;;;;;23.00;73.30;;;;;;6126742;23;893;-66
2022/08/26 01:19:43;;;;;;;;;;;23.00;73.30;;;;;;6101259;23;903;-66
2022/08/26 01:22:13;;;;;;;;;;;23.00;73.30;;;;;;6101162;23;900;-66
2022/08/26 01:24:38;;;;;;;;;;;23.10;73.40;;;;;;6100945;23;1314;-66
2022/08/26 01:27:04;;;;;;;;;;;23.10;73.30;;;;;;6126734;23;828;-67
2022/08/26 01:29:30;;;;;;;;;;;23.10;73.40;;;;;;6101198;23;1923;-66
2022/08/26 01:31:55;;;;;;;;;;;23.00;73.30;;;;;;6100773;23;882;-66
2022/08/26 01:34:25;;;;;;;;;;;23.10;73.40;;;;;;6101187;23;1136;-67
2022/08/26 01:36:53;;;;;;;;;;;23.00;73.30;;;;;;6100800;23;866;-68
2022/08/26 01:39:19;;;;;;;;;;;23.00;73.30;;;;;;6101430;23;809;-68
2022/08/26 01:41:44;;;;;;;;;;;23.00;73.30;;;;;;6100931;23;804;-68
2022/08/26 01:44:13;;;;;;;;;;;23.00;73.30;;;;;;6100760;23;1188;-68
2022/08/26 01:46:38;;;;;;;;;;;23.10;73.30;;;;;;6126101;23;1022;-66
2022/08/26 01:49:04;;;;;;;;;;;23.00;73.30;;;;;;6100803;23;1877;-67
2022/08/26 01:51:30;;;;;;;;;;;23.10;73.30;;;;;;6126596;23;1059;-67
2022/08/26 01:53:56;;;;;;;;;;;23.00;73.30;;;;;;6126323;23;1206;-67
2022/08/26 01:56:21;;;;;;;;;;;23.00;73.30;;;;;;6100120;23;861;-67
2022/08/26 01:58:49;;;;;;;;;;;23.10;73.40;;;;;;6100750;23;805;-67
2022/08/26 02:01:15;;;;;;;;;;;23.00;73.30;;;;;;6100617;23;829;-67
2022/08/26 02:04:00;;;;;;;;;;;23.10;73.40;;;;;;6100560;23;1267;-68
2022/08/26 02:06:26;;;;;;;;;;;23.00;73.30;;;;;;6105513;23;1214;-68
2022/08/26 02:08:52;;;;;;;;;;;23.00;73.30;;;;;;6126573;23;1897;-66
2022/08/26 02:11:17;;;;;;;;;;;23.00;73.30;;;;;;6100488;23;1245;-67
2022/08/26 02:13:44;;;;;;;;;;;23.00;73.30;;;;;;6100506;23;1187;-67
2022/08/26 02:16:09;;;;;;;;;;;23.00;73.30;;;;;;6100534;23;939;-67
2022/08/26 02:18:36;;;;;;;;;;;23.00;73.30;;;;;;6100795;23;717;-67
2022/08/26 02:21:01;;;;;;;;;;;23.00;73.30;;;;;;6100657;23;804;-68
2022/08/26 02:23:27;;;;;;;;;;;23.00;73.30;;;;;;6100832;23;1290;-68
2022/08/26 02:26:07;;;;;;;;;;;23.00;73.30;;;;;;6126197;23;816;-68
2022/08/26 02:28:35;;;;;;;;;;;23.00;73.30;;;;;;6101013;23;1933;-68
2022/08/26 02:31:00;;;;;;;;;;;23.00;73.30;;;;;;6126135;23;1030;-67
2022/08/26 02:33:29;;;;;;;;;;;23.00;73.30;;;;;;6101017;23;1225;-67
2022/08/26 02:35:54;;;;;;;;;;;23.00;73.30;;;;;;6100301;23;816;-68
2022/08/26 02:38:20;;;;;;;;;;;23.00;73.30;;;;;;6126818;23;769;-68
2022/08/26 02:40:45;;;;;;;;;;;23.00;73.30;;;;;;6126321;23;916;-68
2022/08/26 02:43:11;;;;;;;;;;;23.00;73.30;;;;;;6126361;23;913;-68
2022/08/26 02:45:36;;;;;;;;;;;23.00;73.30;;;;;;6126037;23;1170;-68
2022/08/26 02:48:04;;;;;;;;;;;23.00;73.30;;;;;;6126298;23;1885;-68
2022/08/26 02:50:29;;;;;;;;;;;23.00;73.30;;;;;;6076465;23;1273;-68
2022/08/26 02:52:55;;;;;;;;;;;23.00;73.30;;;;;;6126338;23;828;-67
2022/08/26 02:55:20;;;;;;;;;;;23.00;73.30;;;;;;6125997;23;1179;-67
2022/08/26 02:57:46;;;;;;;;;;;23.00;73.30;;;;;;6100237;23;1007;-67
2022/08/26 03:00:13;;;;;;;;;;;23.00;73.30;;;;;;6126393;23;774;-68
2022/08/26 03:02:39;;;;;;;;;;;23.00;73.30;;;;;;6076574;23;1322;-67
2022/08/26 03:05:04;;;;;;;;;;;23.00;73.30;;;;;;6076019;23;1286;-67
2022/08/26 03:07:30;;;;;;;;;;;23.00;73.30;;;;;;6125818;23;824;-67
2022/08/26 03:09:56;;;;;;;;;;;23.00;74.10;;;;;;6099972;23;1927;-67
2022/08/26 03:12:21;;;;;;;;;;;23.00;73.40;;;;;;6126130;23;801;-66
2022/08/26 03:14:47;;;;;;;;;;;23.00;73.30;;;;;;6126011;23;1195;-67
2022/08/26 03:17:12;;;;;;;;;;;23.00;73.30;;;;;;6125854;23;916;-66
2022/08/26 03:19:38;;;;;;;;;;;23.00;73.30;;;;;;6126227;23;840;-66
2022/08/26 03:22:03;;;;;;;;;;;23.00;73.30;;;;;;6100114;23;872;-67
2022/08/26 03:24:29;;;;;;;;;;;23.00;73.30;;;;;;6099915;23;1192;-67
2022/08/26 03:26:54;;;;;;;;;;;23.00;73.30;;;;;;6125729;23;991;-68
2022/08/26 03:32:04;;;;;;;;;;;23.00;73.30;;;;;;6126194;23;620;-67
2022/08/26 03:34:30;;;;;;;;;;;23.00;73.30;;;;;;6126258;23;1196;-67
2022/08/26 03:36:56;;;;;;;;;;;23.00;73.30;;;;;;6125781;23;793;-67
2022/08/26 03:39:21;;;;;;;;;;;23.00;73.30;;;;;;6126211;23;865;-67
2022/08/26 03:41:47;;;;;;;;;;;23.00;73.40;;;;;;6125830;23;933;-67
2022/08/26 03:44:12;;;;;;;;;;;23.00;73.30;;;;;;6125830;23;1270;-67
2022/08/26 03:46:38;;;;;;;;;;;23.00;73.30;;;;;;6125648;23;853;-67
2022/08/26 03:49:04;;;;;;;;;;;23.00;73.40;;;;;;6125811;23;1889;-67
2022/08/26 03:51:30;;;;;;;;;;;23.00;73.30;;;;;;6100079;23;842;-66
2022/08/26 03:53:56;;;;;;;;;;;23.00;73.30;;;;;;6125689;23;1222;-66
2022/08/26 03:56:21;;;;;;;;;;;23.00;73.40;;;;;;6125684;23;881;-67
2022/08/26 03:58:46;;;;;;;;;;;23.00;73.40;;;;;;6100208;23;805;-67
2022/08/26 04:01:12;;;;;;;;;;;23.00;73.30;;;;;;6125688;23;790;-66
2022/08/26 04:03:56;;;;;;;;;;;23.00;73.30;;;;;;6125702;23;1205;-67
2022/08/26 04:06:22;;;;;;;;;;;23.00;73.40;;;;;;6103642;23;955;-67
2022/08/26 04:08:48;;;;;;;;;;;23.00;73.30;;;;;;6075917;23;1933;-67
2022/08/26 04:11:17;;;;;;;;;;;23.00;73.30;;;;;;6125928;23;828;-66
2022/08/26 04:13:43;;;;;;;;;;;23.00;73.30;;;;;;6100253;23;1264;-67
2022/08/26 04:16:08;;;;;;;;;;;23.00;73.40;;;;;;6099634;23;947;-67
2022/08/26 04:18:36;;;;;;;;;;;23.00;73.40;;;;;;6099776;23;915;-67
2022/08/26 04:21:05;;;;;;;;;;;23.00;73.40;;;;;;6125688;23;856;-67
2022/08/26 04:23:30;;;;;;;;;;;23.00;73.40;;;;;;6100208;23;1201;-67
2022/08/26 04:25:56;;;;;;;;;;;23.00;73.40;;;;;;6125580;23;877;-66
2022/08/26 04:28:21;;;;;;;;;;;23.00;73.30;;;;;;6125593;23;1892;-67
2022/08/26 04:30:48;;;;;;;;;;;23.00;73.30;;;;;;6099471;23;687;-67
2022/08/26 04:33:13;;;;;;;;;;;23.00;73.30;;;;;;6099216;23;1274;-67
2022/08/26 04:35:39;;;;;;;;;;;23.00;73.30;;;;;;6099495;23;1281;-66
2022/08/26 04:38:04;;;;;;;;;;;23.00;73.30;;;;;;6125615;23;691;-67
2022/08/26 04:40:30;;;;;;;;;;;23.00;73.30;;;;;;6125771;23;790;-66
2022/08/26 04:42:55;;;;;;;;;;;23.00;73.40;;;;;;6125546;23;781;-65
2022/08/26 04:45:21;;;;;;;;;;;23.00;73.40;;;;;;6125431;23;1285;-66
2022/08/26 04:47:46;;;;;;;;;;;23.00;73.30;;;;;;6099328;23;718;-66
2022/08/26 04:50:12;;;;;;;;;;;23.00;73.30;;;;;;6099512;23;1933;-65
2022/08/26 04:52:38;;;;;;;;;;;23.00;73.30;;;;;;6125735;23;793;-65
2022/08/26 04:55:04;;;;;;;;;;;23.00;73.30;;;;;;6126814;23;1369;-67
2022/08/26 04:57:30;;;;;;;;;;;23.00;73.30;;;;;;6127390;23;786;-67
2022/08/26 04:59:56;;;;;;;;;;;23.00;73.40;;;;;;6127365;23;848;-68
2022/08/26 05:02:22;;;;;;;;;;;23.00;73.40;;;;;;6126949;23;872;-66
2022/08/26 05:04:47;;;;;;;;;;;23.00;73.40;;;;;;6127152;23;1274;-66
2022/08/26 05:07:13;;;;;;;;;;;23.00;73.40;;;;;;6126918;23;735;-66
2022/08/26 05:09:38;;;;;;;;;;;23.00;73.40;;;;;;6127154;23;1901;-66
2022/08/26 05:12:04;;;;;;;;;;;23.00;73.30;;;;;;6101194;23;872;-68
2022/08/26 05:14:29;;;;;;;;;;;23.00;73.40;;;;;;6127245;23;1168;-68
2022/08/26 05:16:55;;;;;;;;;;;23.00;73.40;;;;;;6126644;23;817;-67
2022/08/26 05:19:22;;;;;;;;;;;23.00;73.40;;;;;;6127012;23;935;-67
2022/08/26 05:21:48;;;;;;;;;;;23.00;73.30;;;;;;6127115;23;832;-66
2022/08/26 05:24:13;;;;;;;;;;;23.00;73.40;;;;;;6126986;23;1285;-67
2022/08/26 05:26:38;;;;;;;;;;;23.00;73.40;;;;;;6126664;23;785;-66
2022/08/26 05:29:05;;;;;;;;;;;23.00;73.40;;;;;;6076939;23;1889;-67
2022/08/26 05:31:31;;;;;;;;;;;23.00;73.40;;;;;;6126922;23;880;-67
2022/08/26 05:33:56;;;;;;;;;;;23.00;73.40;;;;;;6101001;23;1258;-67
2022/08/26 05:36:22;;;;;;;;;;;23.00;73.40;;;;;;6126669;23;809;-66
2022/08/26 05:38:48;;;;;;;;;;;23.00;73.40;;;;;;6127089;23;856;-67
2022/08/26 05:41:22;;;;;;;;;;;23.00;73.40;;;;;;6126812;23;873;-68
2022/08/26 05:43:47;;;;;;;;;;;23.00;73.40;;;;;;6101133;23;1270;-68
2022/08/26 05:46:13;;;;;;;;;;;23.00;73.40;;;;;;6126421;23;697;-67
2022/08/26 05:48:39;;;;;;;;;;;23.00;73.30;;;;;;6126866;23;1932;-67
2022/08/26 05:51:05;;;;;;;;;;;23.00;73.40;;;;;;6126823;23;833;-67
2022/08/26 05:53:31;;;;;;;;;;;23.00;73.40;;;;;;6126773;23;1302;-68
2022/08/26 05:55:56;;;;;;;;;;;23.00;73.40;;;;;;6100637;23;857;-66
2022/08/26 05:58:22;;;;;;;;;;;23.00;73.40;;;;;;6126623;23;885;-68
2022/08/26 06:00:57;;;;;;;;;;;23.00;73.40;;;;;;6126715;23;1006;-68
2022/08/26 06:03:22;;;;;;;;;;;23.00;73.40;;;;;;6125324;23;1037;-66
2022/08/26 06:05:47;;;;;;;;;;;23.00;73.30;;;;;;6125625;23;1284;-66
2022/08/26 06:08:13;;;;;;;;;;;23.00;73.40;;;;;;6126486;23;1893;-66
2022/08/26 06:10:48;;;;;;;;;;;23.00;73.40;;;;;;6126489;23;860;-67
2022/08/26 06:13:14;;;;;;;;;;;23.00;73.40;;;;;;6126355;23;801;-66
2022/08/26 06:15:44;;;;;;;;;;;23.00;73.40;;;;;;6100205;23;1314;-67
2022/08/26 06:18:09;;;;;;;;;;;23.00;73.40;;;;;;6126469;23;820;-67
2022/08/26 06:20:35;;;;;;;;;;;23.00;73.30;;;;;;6126602;23;816;-67
2022/08/26 06:25:45;;;;;;;;;;;23.00;73.40;;;;;;6104082;23;1288;-66
2022/08/26 06:28:12;;;;;;;;;;;23.00;73.20;;;;;;6126612;23;1915;-66
2022/08/26 06:30:39;;;;;;;;;;;23.00;73.20;;;;;;6126564;23;714;-67
2022/08/26 06:33:05;;;;;;;;;;;23.00;73.20;;;;;;6100462;23;829;-67
2022/08/26 06:35:34;;;;;;;;;;;23.00;73.20;;;;;;6125942;23;1192;-67
2022/08/26 06:37:59;;;;;;;;;;;23.00;73.20;;;;;;6100299;23;936;-67
2022/08/26 06:40:25;;;;;;;;;;;23.00;73.20;;;;;;6126345;23;1007;-67
2022/08/26 06:42:50;;;;;;;;;;;23.00;73.30;;;;;;6126301;23;1038;-67
2022/08/26 06:45:16;;;;;;;;;;;23.00;73.30;;;;;;6126120;23;1298;-67
2022/08/26 06:47:41;;;;;;;;;;;23.00;73.30;;;;;;6126031;23;836;-67
2022/08/26 06:50:07;;;;;;;;;;;23.00;73.30;;;;;;6126338;23;1893;-67
2022/08/26 06:52:32;;;;;;;;;;;23.00;73.40;;;;;;6126319;23;874;-67
2022/08/26 06:54:58;;;;;;;;;;;23.00;73.40;;;;;;6126000;23;1192;-67
2022/08/26 06:57:23;;;;;;;;;;;23.00;73.40;;;;;;6126208;23;842;-67
2022/08/26 06:59:49;;;;;;;;;;;23.00;73.40;;;;;;6126248;23;774;-67
2022/08/26 07:02:14;;;;;;;;;;;23.00;73.50;;;;;;6125987;23;880;-67
2022/08/26 07:04:40;;;;;;;;;;;23.00;73.50;;;;;;6125847;23;1154;-68
2022/08/26 07:07:05;;;;;;;;;;;23.00;73.50;;;;;;6098833;23;1026;-69
2022/08/26 07:09:32;;;;;;;;;;;23.00;73.50;;;;;;6125753;23;1889;-68
2022/08/26 07:11:57;;;;;;;;;;;23.00;73.50;;;;;;6125535;23;864;-68
2022/08/26 07:14:24;;;;;;;;;;;23.00;73.50;;;;;;6125535;23;1210;-68
2022/08/26 07:16:49;;;;;;;;;;;23.00;73.50;;;;;;6125579;23;869;-68
2022/08/26 07:19:16;;;;;;;;;;;23.00;73.50;;;;;;6126585;23;785;-68
2022/08/26 07:21:41;;;;;;;;;;;23.00;73.50;;;;;;6126003;23;860;-69
2022/08/26 07:24:09;;;;;;;;;;;23.00;73.50;;;;;;6125841;23;1196;-68
2022/08/26 07:26:35;;;;;;;;;;;23.00;73.50;;;;;;6125561;23;1345;-68
2022/08/26 07:29:00;;;;;;;;;;;23.00;73.50;;;;;;6126087;23;1924;-67
2022/08/26 07:31:27;;;;;;;;;;;23.00;73.50;;;;;;6126002;23;952;-67
2022/08/26 07:33:52;;;;;;;;;;;23.00;73.50;;;;;;6099922;23;1305;-67
2022/08/26 07:36:19;;;;;;;;;;;23.00;73.50;;;;;;6125496;23;901;-67
2022/08/26 07:38:44;;;;;;;;;;;23.00;73.60;;;;;;6100243;23;824;-67
2022/08/26 07:41:10;;;;;;;;;;;23.00;73.60;;;;;;6125315;23;772;-67
2022/08/26 07:43:35;;;;;;;;;;;23.00;73.50;;;;;;6125204;23;1181;-67
2022/08/26 07:46:01;;;;;;;;;;;23.00;73.60;;;;;;6125641;23;828;-67
2022/08/26 07:48:27;;;;;;;;;;;23.00;73.60;;;;;;6099717;23;1932;-67
2022/08/26 07:50:52;;;;;;;;;;;23.00;73.60;;;;;;6125663;23;845;-67
2022/08/26 07:53:18;;;;;;;;;;;23.00;73.60;;;;;;6125460;23;773;-67
2022/08/26 07:55:44;;;;;;;;;;;23.00;73.60;;;;;;6125355;23;1172;-67
2022/08/26 07:58:09;;;;;;;;;;;23.00;73.60;;;;;;6095943;23;1014;-69
2022/08/26 08:00:34;;;;;;;;;;;23.00;73.60;;;;;;6125459;23;829;-68
2022/08/26 08:03:00;;;;;;;;;;;23.00;73.60;;;;;;6125443;23;979;-68
2022/08/26 08:05:26;;;;;;;;;;;23.00;73.60;;;;;;6125523;23;1283;-68
2022/08/26 08:07:51;;;;;;;;;;;23.00;73.60;;;;;;6099941;23;777;-69
2022/08/26 08:10:19;;;;;;;;;;;23.00;73.60;;;;;;6125728;23;1928;-68
2022/08/26 08:12:44;;;;;;;;;;;23.00;73.60;;;;;;6099976;23;789;-67
2022/08/26 08:15:12;;;;;;;;;;;23.00;73.60;;;;;;6125525;23;1276;-66
2022/08/26 08:17:38;;;;;;;;;;;23.00;73.60;;;;;;6100189;23;868;-66
2022/08/26 08:20:05;;;;;;;;;;;23.00;73.60;;;;;;6125712;23;829;-66
2022/08/26 08:22:31;;;;;;;;;;;23.00;73.60;;;;;;6125603;23;792;-66
2022/08/26 08:24:56;;;;;;;;;;;23.00;73.60;;;;;;6125822;23;1260;-66
2022/08/26 08:27:22;;;;;;;;;;;23.00;73.60;;;;;;6125496;23;1002;-67
2022/08/26 08:29:48;;;;;;;;;;;23.00;73.60;;;;;;6126884;23;1915;-67
2022/08/26 08:32:14;;;;;;;;;;;23.00;73.60;;;;;;6127535;23;792;-68
2022/08/26 08:34:40;;;;;;;;;;;23.00;73.50;;;;;;6077467;23;1689;-68
2022/08/26 08:37:05;;;;;;;;;;;23.00;73.50;;;;;;6101398;23;1288;-68
2022/08/26 08:39:31;;;;;;;;;;;23.10;73.50;;;;;;6101737;23;840;-67
2022/08/26 08:42:09;;;;;;;;;;;23.10;73.40;;;;;;6101553;23;797;-68
2022/08/26 08:44:35;;;;;;;;;;;23.00;73.30;;;;;;6101509;23;1239;-68
2022/08/26 08:47:02;;;;;;;;;;;23.10;73.40;;;;;;6101395;23;825;-67
2022/08/26 08:49:28;;;;;;;;;;;23.00;73.50;;;;;;6127172;23;1922;-68
2022/08/26 08:51:55;;;;;;;;;;;23.00;73.90;;;;;;6127336;23;802;-68
2022/08/26 08:54:21;;;;;;;;;;;23.00;74.10;;;;;;6101193;23;1304;-68
2022/08/26 08:56:57;;;;;;;;;;;23.10;74.40;;;;;;6101191;23;868;-68
2022/08/26 08:59:49;;;;;;;;;;;23.10;74.60;;;;;;6101726;23;990;-67
2022/08/26 09:02:26;;;;;;;;;;;23.10;74.80;;;;;;6113988;23;1100;-67
2022/08/26 09:05:06;;;;;;;;;;;23.10;74.90;;;;;;6101554;23;1188;-67
2022/08/26 09:07:36;;;;;;;;;;;23.10;74.90;;;;;;6127319;23;789;-67
2022/08/26 09:10:04;;;;;;;;;;;23.10;75.20;;;;;;6101647;23;2005;-67
2022/08/26 09:12:30;;;;;;;;;;;23.10;75.00;;;;;;6101236;23;982;-67
2022/08/26 09:15:01;;;;;;;;;;;23.10;75.00;;;;;;6101479;23;1188;-67
2022/08/26 09:17:35;;;;;;;;;;;23.10;74.90;;;;;;6127245;23;797;-67
2022/08/26 09:20:19;;;;;;;;;;;23.10;74.80;;;;;;6127302;23;876;-67
2022/08/26 09:22:44;;;;;;;;;;;23.10;74.80;;;;;;6101594;23;809;-67
2022/08/26 09:25:11;;;;;;;;;;;23.10;74.70;;;;;;6126985;23;1199;-67
2022/08/26 09:27:38;;;;;;;;;;;23.10;74.60;;;;;;6126934;23;837;-67
2022/08/26 09:30:04;;;;;;;;;;;23.10;74.70;;;;;;6077141;23;1925;-67
2022/08/26 09:32:30;;;;;;;;;;;23.10;74.60;;;;;;6126932;23;884;-67
2022/08/26 09:35:00;;;;;;;;;;;23.10;74.50;;;;;;6126825;23;1300;-67
2022/08/26 09:37:39;;;;;;;;;;;23.10;74.40;;;;;;6099244;23;908;-67
2022/08/26 09:40:10;;;;;;;;;;;23.10;74.30;;;;;;6101176;23;837;-67
2022/08/26 09:42:35;;;;;;;;;;;23.10;74.30;;;;;;6127092;23;883;-67
2022/08/26 09:45:03;;;;;;;;;;;23.10;74.20;;;;;;6126793;23;1282;-67
2022/08/26 09:47:29;;;;;;;;;;;23.10;74.20;;;;;;6101099;23;824;-67
2022/08/26 09:50:03;;;;;;;;;;;23.10;74.10;;;;;;6127080;23;1884;-67
2022/08/26 09:52:28;;;;;;;;;;;23.10;74.10;;;;;;6101286;23;817;-67
2022/08/26 09:55:13;;;;;;;;;;;23.10;74.10;;;;;;6126554;23;1207;-67
2022/08/26 09:57:48;;;;;;;;;;;23.10;74.00;;;;;;6126416;23;822;-67
2022/08/26 10:00:29;;;;;;;;;;;23.10;74.00;;;;;;6126754;23;840;-67
2022/08/26 10:02:55;;;;;;;;;;;23.10;74.30;;;;;;6126933;23;848;-67
2022/08/26 10:05:29;;;;;;;;;;;23.10;74.90;;;;;;6100802;23;1267;-67
2022/08/26 10:07:55;;;;;;;;;;;23.10;75.10;;;;;;6126869;23;876;-67
2022/08/26 10:10:21;;;;;;;;;;;23.10;75.00;;;;;;6100726;23;1918;-67
2022/08/26 10:12:50;;;;;;;;;;;23.10;75.00;;;;;;6126182;23;907;-67
2022/08/26 10:15:15;;;;;;;;;;;23.10;75.10;;;;;;6100451;23;1302;-67
2022/08/26 10:17:54;;;;;;;;;;;23.10;75.00;;;;;;6126161;23;805;-67
2022/08/26 10:20:24;;;;;;;;;;;23.10;74.90;;;;;;6100625;23;900;-67
2022/08/26 10:23:03;;;;;;;;;;;23.10;74.90;;;;;;6126304;23;963;-66
2022/08/26 10:25:33;;;;;;;;;;;23.10;74.80;;;;;;6100525;23;1197;-67
2022/08/26 10:27:59;;;;;;;;;;;23.10;74.80;;;;;;6100716;23;861;-67
2022/08/26 10:30:28;;;;;;;;;;;23.10;74.70;;;;;;6100594;23;1894;-67
2022/08/26 10:32:59;;;;;;;;;;;23.10;74.80;;;;;;6100632;23;837;-67
2022/08/26 10:35:25;;;;;;;;;;;23.10;74.70;;;;;;6100051;23;1304;-67
2022/08/26 10:37:55;;;;;;;;;;;23.10;74.50;;;;;;6100427;23;798;-67
2022/08/26 10:40:24;;;;;;;;;;;23.10;74.50;;;;;;6101069;23;899;-67
2022/08/26 10:42:52;;;;;;;;;;;23.10;74.40;;;;;;6100319;23;1556;-67
2022/08/26 10:45:24;;;;;;;;;;;23.10;74.40;;;;;;6100411;23;1210;-66
2022/08/26 10:47:58;;;;;;;;;;;23.10;74.50;;;;;;6101513;23;786;-68
2022/08/26 10:50:44;;;;;;;;;;;23.10;74.40;;;;;;6126229;23;1885;-67
2022/08/26 10:53:13;;;;;;;;;;;23.10;74.30;;;;;;6124532;23;1027;-67
2022/08/26 10:55:40;;;;;;;;;;;23.10;74.30;;;;;;6121698;23;1957;-66
2022/08/26 10:58:22;;;;;;;;;;;23.10;74.30;;;;;;6098154;23;1007;-66
2022/08/26 11:03:34;;;;;;;;;;;23.10;74.20;;;;;;6102314;23;1295;-65
2022/08/26 11:06:18;;;;;;;;;;;23.10;74.20;;;;;;6123867;23;797;-65
2022/08/26 11:08:46;;;;;;;;;;;23.10;74.20;;;;;;6124163;23;1901;-67
2022/08/26 11:11:11;;;;;;;;;;;23.10;74.20;;;;;;6124651;23;777;-66
2022/08/26 11:13:56;;;;;;;;;;;23.10;74.10;;;;;;6098518;23;1448;-67
2022/08/26 11:16:31;;;;;;;;;;;23.10;74.20;;;;;;6125078;23;741;-66
2022/08/26 11:18:56;;;;;;;;;;;23.10;74.20;;;;;;6075164;23;1287;-66
2022/08/26 11:21:40;;;;;;;;;;;23.10;74.20;;;;;;6125562;23;868;-66
2022/08/26 11:24:05;;;;;;;;;;;23.10;74.30;;;;;;6099305;23;1184;-67
2022/08/26 11:26:34;;;;;;;;;;;23.10;74.30;;;;;;6123717;23;1010;-66
2022/08/26 11:28:59;;;;;;;;;;;23.10;74.30;;;;;;6098926;23;1877;-66
2022/08/26 11:31:25;;;;;;;;;;;23.10;74.30;;;;;;6125676;23;781;-65
2022/08/26 11:33:51;;;;;;;;;;;23.10;74.20;;;;;;6124943;23;1239;-65
2022/08/26 11:36:36;;;;;;;;;;;23.10;74.20;;;;;;6125122;23;1049;-64
2022/08/26 11:39:23;;;;;;;;;;;23.10;74.20;;;;;;6124792;23;775;-65
2022/08/26 11:41:49;;;;;;;;;;;23.10;74.10;;;;;;6125123;23;883;-63
2022/08/26 11:44:18;;;;;;;;;;;23.10;74.10;;;;;;6125123;23;1278;-65
2022/08/26 11:46:50;;;;;;;;;;;23.10;74.10;;;;;;6125394;23;801;-67
2022/08/26 11:49:15;;;;;;;;;;;23.10;74.00;;;;;;6099755;23;1933;-66
2022/08/26 11:51:41;;;;;;;;;;;23.10;74.00;;;;;;6099197;23;872;-66
2022/08/26 11:54:10;;;;;;;;;;;23.10;74.10;;;;;;6099328;23;1364;-65
2022/08/26 11:56:36;;;;;;;;;;;23.10;74.00;;;;;;6125431;23;946;-66
2022/08/26 11:59:02;;;;;;;;;;;23.10;74.00;;;;;;6125477;23;833;-65
2022/08/26 12:01:28;;;;;;;;;;;23.10;74.00;;;;;;6099837;23;864;-66
2022/08/26 12:03:54;;;;;;;;;;;23.10;74.10;;;;;;6100297;23;1239;-65
2022/08/26 12:06:23;;;;;;;;;;;23.10;74.00;;;;;;6126592;23;875;-66
2022/08/26 12:08:49;;;;;;;;;;;23.10;74.00;;;;;;6101563;23;1889;-65
2022/08/26 12:11:22;;;;;;;;;;;23.10;74.10;;;;;;6100499;23;1003;-62
2022/08/26 12:13:57;;;;;;;;;;;23.10;74.20;;;;;;6127602;23;1187;-64
2022/08/26 12:16:26;;;;;;;;;;;23.10;74.10;;;;;;6101443;23;903;-65
2022/08/26 12:18:52;;;;;;;;;;;23.10;74.20;;;;;;6127835;23;1222;-66
2022/08/26 12:21:24;;;;;;;;;;;23.10;74.10;;;;;;6102800;23;967;-66
2022/08/26 12:23:54;;;;;;;;;;;23.10;74.20;;;;;;6100637;23;1287;-65
2022/08/26 12:26:21;;;;;;;;;;;23.10;74.10;;;;;;6126042;23;1049;-64
2022/08/26 12:28:57;;;;;;;;;;;23.10;74.10;;;;;;6100744;23;1967;-64
2022/08/26 12:31:24;;;;;;;;;;;23.10;74.10;;;;;;6091064;23;809;-65
2022/08/26 12:33:50;;;;;;;;;;;23.10;74.10;;;;;;6095635;23;1195;-63
2022/08/26 12:36:23;;;;;;;;;;;23.10;74.10;;;;;;6099415;23;813;-65
2022/08/26 12:38:48;;;;;;;;;;;23.10;74.10;;;;;;6126443;23;903;-64
2022/08/26 12:41:32;;;;;;;;;;;23.10;74.00;;;;;;6125767;23;820;-65
2022/08/26 12:43:58;;;;;;;;;;;23.10;74.00;;;;;;6125548;23;1212;-64
2022/08/26 12:46:24;;;;;;;;;;;23.10;74.00;;;;;;6125121;23;880;-65
2022/08/26 12:48:49;;;;;;;;;;;23.10;74.00;;;;;;6098505;23;1881;-62
2022/08/26 12:51:20;;;;;;;;;;;23.10;74.00;;;;;;6125793;23;934;-64
2022/08/26 12:53:45;;;;;;;;;;;23.10;74.00;;;;;;6099425;23;1366;-64
2022/08/26 12:56:23;;;;;;;;;;;23.10;74.00;;;;;;6099858;23;903;-64
2022/08/26 12:59:01;;;;;;;;;;;23.10;74.00;;;;;;6126178;23;904;-63
2022/08/26 13:01:28;;;;;;;;;;;23.10;74.00;;;;;;6126744;23;830;-64
2022/08/26 13:03:53;;;;;;;;;;;23.10;74.00;;;;;;6101023;23;1292;-63
2022/08/26 13:06:19;;;;;;;;;;;23.10;73.90;;;;;;6125766;23;911;-63
2022/08/26 13:08:55;;;;;;;;;;;23.10;74.00;;;;;;6127075;23;1928;-64
2022/08/26 13:11:21;;;;;;;;;;;23.10;74.00;;;;;;6101420;23;876;-64
2022/08/26 13:13:50;;;;;;;;;;;23.10;74.00;;;;;;6101441;23;1208;-64
2022/08/26 13:16:16;;;;;;;;;;;23.10;73.90;;;;;;6101406;23;797;-65
2022/08/26 13:18:41;;;;;;;;;;;23.10;73.90;;;;;;6127366;23;883;-63
2022/08/26 13:21:08;;;;;;;;;;;23.10;73.90;;;;;;6125572;23;915;-64
2022/08/26 13:23:33;;;;;;;;;;;23.10;73.90;;;;;;6126993;23;1190;-64
2022/08/26 13:25:59;;;;;;;;;;;23.10;73.90;;;;;;6126839;23;881;-65
2022/08/26 13:28:24;;;;;;;;;;;23.10;73.90;;;;;;6126773;23;1923;-66
2022/08/26 13:30:49;;;;;;;;;;;23.10;74.70;;;;;;6100841;23;933;-64
2022/08/26 13:33:17;;;;;;;;;;;23.10;73.90;;;;;;6126655;23;959;-63
2022/08/26 13:35:42;;;;;;;;;;;23.10;73.90;;;;;;6075703;23;1394;-64
2022/08/26 13:38:13;;;;;;;;;;;23.10;73.90;;;;;;6126313;23;843;-64
2022/08/26 13:40:40;;;;;;;;;;;23.10;73.90;;;;;;6126604;23;848;-66
2022/08/26 13:43:05;;;;;;;;;;;23.10;73.90;;;;;;6100365;23;840;-66
2022/08/26 13:45:30;;;;;;;;;;;23.10;73.90;;;;;;6100067;23;1642;-66
2022/08/26 13:47:57;;;;;;;;;;;23.10;73.90;;;;;;6126796;23;880;-64
2022/08/26 13:50:22;;;;;;;;;;;23.10;73.90;;;;;;6126757;23;1920;-65
2022/08/26 13:52:48;;;;;;;;;;;23.10;73.90;;;;;;6126500;23;923;-64
2022/08/26 13:55:13;;;;;;;;;;;23.10;73.90;;;;;;6126141;23;1137;-64
2022/08/26 13:57:39;;;;;;;;;;;23.10;73.90;;;;;;6125576;23;1212;-64
2022/08/26 14:00:05;;;;;;;;;;;23.10;73.90;;;;;;6126259;23;777;-64
2022/08/26 14:02:30;;;;;;;;;;;23.10;73.90;;;;;;6126385;23;801;-65
2022/08/26 14:04:56;;;;;;;;;;;23.10;73.90;;;;;;6126687;23;1272;-64
2022/08/26 14:07:22;;;;;;;;;;;23.10;73.90;;;;;;6126028;23;765;-66
2022/08/26 14:09:47;;;;;;;;;;;23.10;73.90;;;;;;6126957;23;1944;-65
2022/08/26 14:12:13;;;;;;;;;;;23.10;73.90;;;;;;6126563;23;1030;-65
2022/08/26 14:14:38;;;;;;;;;;;23.10;73.90;;;;;;6126404;23;1216;-64
2022/08/26 14:17:04;;;;;;;;;;;23.10;73.90;;;;;;6100891;23;830;-65
2022/08/26 14:19:29;;;;;;;;;;;23.10;73.90;;;;;;6100647;23;1685;-65
2022/08/26 14:21:55;;;;;;;;;;;23.10;73.90;;;;;;6100333;23;1515;-65
2022/08/26 14:24:21;;;;;;;;;;;23.10;73.90;;;;;;6125363;23;1207;-66
2022/08/26 14:26:47;;;;;;;;;;;23.10;73.90;;;;;;6124835;23;852;-65
2022/08/26 14:29:12;;;;;;;;;;;23.10;73.90;;;;;;6126146;23;1944;-65
2022/08/26 14:31:38;;;;;;;;;;;23.10;73.80;;;;;;6126191;23;911;-65
2022/08/26 14:34:04;;;;;;;;;;;23.10;73.90;;;;;;6126531;23;1176;-64
2022/08/26 14:36:33;;;;;;;;;;;23.10;74.00;;;;;;6100245;23;820;-64
2022/08/26 14:39:00;;;;;;;;;;;23.10;74.70;;;;;;6126325;23;797;-64
2022/08/26 14:41:26;;;;;;;;;;;23.10;74.80;;;;;;6126350;23;811;-66
2022/08/26 14:43:58;;;;;;;;;;;23.20;75.00;;;;;;6125913;23;1201;-64
2022/08/26 14:46:27;;;;;;;;;;;23.20;74.40;;;;;;6100040;23;979;-65